createdAt,value
2022-08-07T00:00:08.007Z,12.90
2022-08-07T00:02:40.797Z,12.90
2022-08-07T00:05:11.457Z,12.80
2022-08-07T00:07:41.237Z,12.80
2022-08-07T00:10:25.991Z,12.80
2022-08-07T00:13:00.294Z,12.80
2022-08-07T00:15:37.877Z,12.80
2022-08-07T00:18:19.779Z,12.80
2022-08-07T00:20:49.554Z,12.70
2022-08-07T00:23:17.273Z,12.70
2022-08-07T00:25:52.522Z,12.70
2022-08-07T00:28:33.426Z,12.70
2022-08-07T00:31:05.881Z,12.70
2022-08-07T00:33:34.193Z,12.70
2022-08-07T00:36:01.245Z,12.70
2022-08-07T00:38:31.626Z,12.70
2022-08-07T00:40:59.457Z,12.70
2022-08-07T00:44:00.229Z,12.70
2022-08-07T00:46:14.367Z,12.70
2022-08-07T00:48:42.422Z,12.70
2022-08-07T00:51:10.471Z,12.70
2022-08-07T00:53:38.392Z,12.70
2022-08-07T00:56:07.491Z,12.80
2022-08-07T00:58:47.056Z,12.80
2022-08-07T01:01:18.033Z,12.80
2022-08-07T01:03:56.055Z,12.80
2022-08-07T01:06:28.554Z,12.90
2022-08-07T01:08:58.357Z,12.90
2022-08-07T01:12:09.778Z,12.80
2022-08-07T01:14:15.370Z,12.80
2022-08-07T01:16:46.852Z,12.80
2022-08-07T01:19:19.156Z,12.80
2022-08-07T01:21:48.585Z,12.80
2022-08-07T01:24:21.243Z,12.80
2022-08-07T01:26:51.896Z,12.80
2022-08-07T01:29:23.617Z,12.70
2022-08-07T01:31:55.766Z,12.70
2022-08-07T01:34:30.685Z,12.70
2022-08-07T01:36:58.520Z,12.70
2022-08-07T01:39:40.630Z,12.70
2022-08-07T01:42:39.473Z,12.60
2022-08-07T01:45:02.641Z,12.60
2022-08-07T01:48:18.955Z,12.50
2022-08-07T01:50:17.235Z,12.50
2022-08-07T01:52:58.508Z,12.50
2022-08-07T01:55:47.548Z,12.50
2022-08-07T01:58:27.718Z,12.40
2022-08-07T02:01:10.140Z,12.40
2022-08-07T02:03:56.778Z,12.40
2022-08-07T02:06:31.365Z,12.40
2022-08-07T02:09:03.795Z,12.30
2022-08-07T02:12:02.889Z,12.30
2022-08-07T02:14:35.730Z,12.20
2022-08-07T02:17:03.680Z,12.30
2022-08-07T02:20:07.688Z,12.20
2022-08-07T02:22:25.780Z,12.20
2022-08-07T02:24:54.830Z,12.20
2022-08-07T02:27:24.124Z,12.10
2022-08-07T02:29:54.627Z,12.10
2022-08-07T02:32:26.955Z,12.10
2022-08-07T02:34:58.491Z,12.10
2022-08-07T02:37:33.933Z,12.10
2022-08-07T02:40:30.179Z,12.10
2022-08-07T02:42:54.146Z,12.10
2022-08-07T02:45:58.852Z,12.10
2022-08-07T02:48:15.654Z,12.20
2022-08-07T02:50:48.428Z,12.20
2022-08-07T02:53:28.692Z,12.30
2022-08-07T02:56:04.394Z,12.40
2022-08-07T02:58:34.207Z,12.50
2022-08-07T03:01:03.359Z,12.50
2022-08-07T03:03:49.351Z,12.50
2022-08-07T03:06:25.833Z,12.50
2022-08-07T03:09:07.711Z,12.50
2022-08-07T03:11:51.751Z,12.50
2022-08-07T03:14:20.226Z,12.50
2022-08-07T03:16:49.790Z,12.50
2022-08-07T03:19:19.985Z,12.40
2022-08-07T03:21:50.857Z,12.40
2022-08-07T03:24:26.663Z,12.40
2022-08-07T03:26:59.502Z,12.40
2022-08-07T03:29:46.030Z,12.40
2022-08-07T03:32:20.895Z,12.40
2022-08-07T03:35:16.779Z,12.50
2022-08-07T03:37:46.333Z,12.50
2022-08-07T03:40:22.190Z,12.60
2022-08-07T03:42:51.517Z,12.70
2022-08-07T03:45:30.004Z,12.70
2022-08-07T03:47:59.538Z,12.80
2022-08-07T03:50:28.431Z,12.80
2022-08-07T03:53:00.235Z,12.90
2022-08-07T03:55:53.076Z,13.00
2022-08-07T03:58:32.979Z,13.10
2022-08-07T04:01:07.482Z,13.20
2022-08-07T04:03:38.858Z,13.20
2022-08-07T04:06:37.972Z,13.30
2022-08-07T04:09:04.650Z,13.20
2022-08-07T04:12:21.397Z,13.30
2022-08-07T04:14:37.763Z,13.30
2022-08-07T04:17:20.401Z,13.30
2022-08-07T04:19:52.139Z,13.30
2022-08-07T04:22:28.913Z,13.40
2022-08-07T04:25:01.612Z,13.40
2022-08-07T04:27:36.331Z,13.50
2022-08-07T04:30:21.363Z,13.60
2022-08-07T04:32:58.992Z,13.70
2022-08-07T04:35:26.100Z,13.80
2022-08-07T04:38:03.035Z,13.80
2022-08-07T04:40:35.313Z,13.80
2022-08-07T04:43:03.295Z,13.80
2022-08-07T04:46:01.341Z,13.90
2022-08-07T04:48:55.469Z,13.80
2022-08-07T04:51:47.071Z,14.10
2022-08-07T04:54:39.603Z,14.10
2022-08-07T04:58:10.149Z,14.10
2022-08-07T05:00:18.962Z,14.20
2022-08-07T05:03:31.067Z,14.10
2022-08-07T05:06:19.224Z,14.10
2022-08-07T05:09:04.773Z,14.10
2022-08-07T05:11:57.987Z,14.00
2022-08-07T05:14:54.448Z,14.00
2022-08-07T05:17:51.965Z,14.00
2022-08-07T05:20:23.855Z,14.10
2022-08-07T05:22:53.045Z,14.20
2022-08-07T05:25:25.752Z,14.50
2022-08-07T05:28:20.519Z,14.70
2022-08-07T05:30:49.068Z,15.10
2022-08-07T05:33:18.202Z,15.30
2022-08-07T05:35:50.773Z,15.60
2022-08-07T05:38:58.025Z,15.70
2022-08-07T05:41:14.318Z,15.90
2022-08-07T05:44:08.415Z,16.10
2022-08-07T05:46:37.749Z,16.10
2022-08-07T05:49:11.733Z,16.40
2022-08-07T05:51:40.617Z,16.60
2022-08-07T05:54:12.732Z,16.70
2022-08-07T05:56:56.625Z,16.80
2022-08-07T05:59:25.641Z,16.80
2022-08-07T06:01:57.368Z,17.00
2022-08-07T06:04:30.067Z,17.10
2022-08-07T06:07:03.872Z,17.30
2022-08-07T06:10:04.745Z,17.60
2022-08-07T06:12:21.167Z,17.50
2022-08-07T06:15:05.115Z,17.70
2022-08-07T06:17:37.976Z,17.80
2022-08-07T06:20:12.402Z,17.90
2022-08-07T06:23:02.215Z,18.00
2022-08-07T06:25:41.726Z,18.00
2022-08-07T06:28:27.625Z,18.20
2022-08-07T06:30:56.141Z,18.40
2022-08-07T06:33:24.428Z,18.60
2022-08-07T06:36:06.919Z,18.50
2022-08-07T06:38:39.039Z,18.60
2022-08-07T06:41:58.829Z,18.40
2022-08-07T06:44:13.046Z,18.50
2022-08-07T06:46:43.444Z,18.80
2022-08-07T06:49:21.303Z,18.90
2022-08-07T06:51:50.382Z,18.80
2022-08-07T06:55:33.100Z,18.70
2022-08-07T06:57:08.241Z,18.90
2022-08-07T07:00:12.382Z,18.90
2022-08-07T07:02:48.445Z,19.10
2022-08-07T07:06:05.571Z,19.30
2022-08-07T07:08:06.809Z,19.60
2022-08-07T07:10:37.027Z,19.70
2022-08-07T07:13:55.669Z,19.90
2022-08-07T07:16:13.570Z,19.70
2022-08-07T07:19:11.226Z,19.60
2022-08-07T07:22:05.111Z,19.60
2022-08-07T07:24:38.565Z,19.60
2022-08-07T07:27:13.594Z,19.50
2022-08-07T07:30:07.397Z,19.60
2022-08-07T07:32:38.875Z,19.30
2022-08-07T07:35:06.790Z,19.30
2022-08-07T07:37:45.287Z,19.40
2022-08-07T07:40:19.540Z,19.60
2022-08-07T07:42:53.760Z,19.60
2022-08-07T07:46:37.327Z,19.50
2022-08-07T07:48:34.821Z,19.60
2022-08-07T07:51:07.875Z,19.90
2022-08-07T07:53:52.726Z,20.30
2022-08-07T07:56:29.978Z,20.60
2022-08-07T07:59:00.416Z,20.60
2022-08-07T08:02:03.732Z,20.70
2022-08-07T08:04:25.907Z,20.80
2022-08-07T08:06:55.098Z,20.70
2022-08-07T08:09:29.315Z,20.70
2022-08-07T08:12:02.931Z,20.80
2022-08-07T08:14:34.502Z,20.80
2022-08-07T08:17:32.273Z,20.60
2022-08-07T08:20:19.429Z,20.20
2022-08-07T08:23:09.311Z,20.40
2022-08-07T08:26:02.172Z,20.70
2022-08-07T08:28:38.101Z,20.90
2022-08-07T08:31:15.874Z,21.10
2022-08-07T08:33:49.668Z,21.20
2022-08-07T08:36:25.577Z,20.70
2022-08-07T08:39:01.577Z,20.80
2022-08-07T08:41:56.911Z,20.40
2022-08-07T08:44:54.468Z,21.00
2022-08-07T08:47:51.830Z,21.30
2022-08-07T08:50:39.948Z,21.70
2022-08-07T08:53:20.482Z,22.00
2022-08-07T08:55:58.579Z,21.20
2022-08-07T08:58:44.032Z,20.70
2022-08-07T09:01:20.675Z,20.40
2022-08-07T09:04:07.097Z,20.80
2022-08-07T09:06:56.001Z,20.90
2022-08-07T09:09:36.551Z,20.60
2022-08-07T09:12:30.779Z,20.50
2022-08-07T09:16:20.245Z,20.30
2022-08-07T09:18:38.303Z,20.40
2022-08-07T09:21:58.254Z,20.00
2022-08-07T09:24:31.144Z,20.20
2022-08-07T09:27:38.358Z,20.50
2022-08-07T09:30:20.769Z,21.00
2022-08-07T09:33:16.699Z,20.50
2022-08-07T09:36:18.817Z,20.60
2022-08-07T09:38:54.097Z,21.40
2022-08-07T09:41:43.522Z,21.80
2022-08-07T09:44:58.343Z,21.70
2022-08-07T09:48:01.720Z,21.30
2022-08-07T09:50:54.379Z,21.80
2022-08-07T09:53:24.556Z,22.00
2022-08-07T09:56:37.227Z,22.00
2022-08-07T09:59:35.682Z,21.80
2022-08-07T10:02:55.866Z,21.70
2022-08-07T10:05:59.749Z,21.10
2022-08-07T10:08:41.454Z,21.30
2022-08-07T10:12:02.358Z,21.60
2022-08-07T10:14:31.192Z,21.90
2022-08-07T10:17:16.399Z,22.40
2022-08-07T10:20:03.981Z,22.60
2022-08-07T10:22:33.645Z,22.50
2022-08-07T10:25:43.224Z,22.20
2022-08-07T10:28:16.297Z,22.00
2022-08-07T10:31:19.922Z,21.20
2022-08-07T10:34:18.248Z,21.00
2022-08-07T10:37:12.309Z,21.10
2022-08-07T10:40:02.715Z,21.30
2022-08-07T10:42:45.874Z,21.50
2022-08-07T10:45:44.587Z,21.40
2022-08-07T10:48:48.865Z,21.50
2022-08-07T10:51:39.138Z,21.90
2022-08-07T10:54:29.012Z,21.90
2022-08-07T10:57:16.911Z,22.20
2022-08-07T11:00:04.285Z,22.60
2022-08-07T11:02:38.098Z,22.70
2022-08-07T11:05:35.699Z,23.00
2022-08-07T11:08:34.953Z,23.30
2022-08-07T11:11:03.962Z,22.80
2022-08-07T11:14:44.914Z,22.00
2022-08-07T11:16:30.607Z,21.80
2022-08-07T11:19:27.441Z,22.20
2022-08-07T11:22:43.898Z,22.00
2022-08-07T11:25:36.257Z,22.10
2022-08-07T11:28:20.380Z,22.80
2022-08-07T11:31:08.848Z,23.00
2022-08-07T11:34:04.153Z,23.20
2022-08-07T11:37:00.367Z,23.30
2022-08-07T11:40:00.274Z,23.30
2022-08-07T11:42:29.904Z,22.90
2022-08-07T11:45:06.613Z,22.50
2022-08-07T11:47:59.549Z,22.70
2022-08-07T11:50:44.548Z,22.40
2022-08-07T11:53:43.336Z,22.60
2022-08-07T11:56:52.176Z,23.20
2022-08-07T12:00:11.708Z,23.10
2022-08-07T12:02:52.066Z,22.90
2022-08-07T12:05:49.207Z,22.50
2022-08-07T12:08:25.975Z,21.60
2022-08-07T12:11:20.745Z,21.40
2022-08-07T12:14:18.952Z,21.50
2022-08-07T12:16:56.112Z,21.30
2022-08-07T12:20:03.165Z,21.20
2022-08-07T12:23:08.901Z,21.00
2022-08-07T12:26:03.448Z,21.00
2022-08-07T12:28:49.590Z,21.00
2022-08-07T12:32:02.104Z,21.10
2022-08-07T12:34:18.501Z,21.90
2022-08-07T12:36:50.103Z,22.20
2022-08-07T12:39:44.334Z,21.60
2022-08-07T12:42:12.180Z,21.70
2022-08-07T12:44:45.164Z,21.50
2022-08-07T12:47:27.047Z,21.10
2022-08-07T12:50:39.261Z,20.90
2022-08-07T12:53:27.850Z,21.10
2022-08-07T12:56:27.871Z,21.00
2022-08-07T12:58:57.330Z,21.10
2022-08-07T13:01:32.168Z,21.00
2022-08-07T13:04:34.199Z,21.10
2022-08-07T13:08:12.284Z,20.80
2022-08-07T13:10:39.914Z,21.10
2022-08-07T13:13:48.212Z,21.50
2022-08-07T13:16:43.006Z,21.30
2022-08-07T13:19:45.784Z,21.40
2022-08-07T13:22:36.285Z,21.30
2022-08-07T13:25:10.644Z,21.20
2022-08-07T13:28:10.597Z,21.20
2022-08-07T13:30:52.204Z,20.90
2022-08-07T13:34:33.354Z,20.70
2022-08-07T13:36:45.156Z,20.50
2022-08-07T13:39:49.414Z,20.50
2022-08-07T13:42:14.718Z,20.60
2022-08-07T13:44:55.251Z,20.60
2022-08-07T13:48:08.250Z,20.50
2022-08-07T13:50:34.934Z,20.80
2022-08-07T13:53:21.774Z,20.90
2022-08-07T13:55:54.896Z,21.30
2022-08-07T13:58:56.539Z,21.20
2022-08-07T14:01:26.553Z,21.10
2022-08-07T14:04:08.216Z,21.10
2022-08-07T14:06:39.293Z,20.90
2022-08-07T14:09:17.097Z,20.90
2022-08-07T14:12:04.866Z,20.90
2022-08-07T14:14:51.478Z,21.90
2022-08-07T14:18:12.304Z,22.10
2022-08-07T14:20:39.904Z,21.90
2022-08-07T14:23:08.623Z,21.50
2022-08-07T14:25:39.327Z,21.60
2022-08-07T14:28:15.495Z,21.40
2022-08-07T14:30:52.041Z,21.40
2022-08-07T14:33:23.319Z,21.30
2022-08-07T14:35:58.703Z,21.80
2022-08-07T14:38:52.638Z,21.80
2022-08-07T14:41:33.897Z,21.10
2022-08-07T14:44:16.526Z,20.80
2022-08-07T14:46:52.020Z,20.80
2022-08-07T14:52:27.707Z,20.80
2022-08-07T14:54:58.644Z,20.50
2022-08-07T14:57:58.387Z,20.50
2022-08-07T15:00:20.700Z,20.30
2022-08-07T15:03:00.031Z,20.10
2022-08-07T15:05:30.313Z,20.10
2022-08-07T15:08:03.696Z,19.80
2022-08-07T15:10:30.879Z,19.70
2022-08-07T15:13:12.292Z,19.40
2022-08-07T15:18:40.189Z,19.40
2022-08-07T15:21:58.428Z,19.20
2022-08-07T15:25:13.220Z,19.30
2022-08-07T15:27:17.366Z,19.30
2022-08-07T15:30:10.283Z,19.20
2022-08-07T15:38:51.013Z,18.80
2022-08-07T15:42:42.266Z,18.80
2022-08-07T15:44:13.150Z,18.80
2022-08-07T15:46:51.598Z,18.80
2022-08-07T15:49:25.434Z,18.60
2022-08-07T15:52:13.806Z,18.70
2022-08-07T15:54:44.412Z,18.70
2022-08-07T15:57:28.339Z,18.60
2022-08-07T16:00:06.386Z,18.60
2022-08-07T16:02:42.012Z,18.60
2022-08-07T16:05:20.573Z,18.50
2022-08-07T16:08:31.235Z,18.60
2022-08-07T16:10:48.626Z,18.60
2022-08-07T16:13:58.456Z,18.60
2022-08-07T16:16:58.360Z,18.80
2022-08-07T16:19:59.072Z,19.10
2022-08-07T16:22:31.955Z,19.40
2022-08-07T16:25:07.511Z,19.60
2022-08-07T16:29:18.121Z,19.80
2022-08-07T16:31:50.087Z,19.80
2022-08-07T16:34:38.484Z,19.90
2022-08-07T16:38:03.235Z,19.80
2022-08-07T16:40:56.966Z,19.70
2022-08-07T16:44:53.793Z,19.50
2022-08-07T16:47:16.754Z,19.40
2022-08-07T16:50:27.096Z,19.00
2022-08-07T16:53:14.814Z,19.00
2022-08-07T16:56:03.110Z,18.80
2022-08-07T16:59:24.654Z,18.70
2022-08-07T17:02:51.628Z,18.60
2022-08-07T17:06:28.773Z,18.50
2022-08-07T17:09:10.432Z,18.40
2022-08-07T17:12:03.841Z,18.30
2022-08-07T17:15:00.255Z,18.20
2022-08-07T17:17:27.098Z,18.30
2022-08-07T17:20:33.694Z,18.30
2022-08-07T17:23:14.938Z,18.10
2022-08-07T17:26:24.191Z,18.10
2022-08-07T17:30:15.861Z,18.10
2022-08-07T17:32:30.453Z,18.10
2022-08-07T17:35:49.932Z,18.10
2022-08-07T17:38:33.860Z,18.20
2022-08-07T17:42:01.875Z,18.20
2022-08-07T17:44:33.548Z,18.10
2022-08-07T17:47:17.033Z,18.10
2022-08-07T17:50:14.375Z,18.10
2022-08-07T17:52:54.149Z,18.00
2022-08-07T17:55:55.047Z,18.00
2022-08-07T17:58:56.840Z,18.00
2022-08-07T18:01:58.486Z,17.90
2022-08-07T18:04:41.248Z,17.90
2022-08-07T18:07:34.117Z,17.80
2022-08-07T18:10:28.643Z,17.80
2022-08-07T18:13:15.291Z,17.80
2022-08-07T18:16:06.625Z,17.80
2022-08-07T18:21:07.961Z,17.70
2022-08-07T18:21:58.570Z,17.60
2022-08-07T18:24:51.212Z,17.50
2022-08-07T18:27:40.233Z,17.40
2022-08-07T18:30:33.041Z,17.40
2022-08-07T18:33:26.928Z,17.30
2022-08-07T18:36:14.464Z,17.30
2022-08-07T18:40:08.769Z,17.30
2022-08-07T18:42:28.680Z,17.20
2022-08-07T18:45:43.341Z,17.20
2022-08-07T18:50:03.365Z,17.10
2022-08-07T18:52:34.907Z,17.10
2022-08-07T18:54:49.609Z,17.00
2022-08-07T18:57:30.110Z,17.00
2022-08-07T19:00:32.371Z,17.00
2022-08-07T19:03:20.726Z,16.90
2022-08-07T19:06:16.507Z,16.90
2022-08-07T19:09:09.438Z,16.80
2022-08-07T19:12:21.015Z,16.70
2022-08-07T19:16:02.328Z,16.50
2022-08-07T19:18:34.657Z,16.40
2022-08-07T19:21:46.645Z,16.20
2022-08-07T19:24:30.835Z,16.00
2022-08-07T19:28:29.492Z,15.90
2022-08-07T19:31:03.013Z,15.70
2022-08-07T19:32:50.890Z,15.60
2022-08-07T19:35:22.552Z,15.50
2022-08-07T19:37:58.544Z,15.40
2022-08-07T19:40:31.267Z,15.30
2022-08-07T19:43:08.403Z,15.20
2022-08-07T19:46:08.111Z,15.10
2022-08-07T19:48:55.857Z,15.00
2022-08-07T19:51:52.393Z,15.00
2022-08-07T19:54:31.743Z,14.90
2022-08-07T19:58:02.755Z,14.90
2022-08-07T19:59:58.381Z,14.80
2022-08-07T20:02:31.632Z,14.70
2022-08-07T20:05:02.722Z,14.70
2022-08-07T20:07:45.880Z,14.70
2022-08-07T20:10:37.126Z,14.60
2022-08-07T20:13:23.731Z,14.60
2022-08-07T20:15:57.585Z,14.60
2022-08-07T20:18:32.990Z,14.70
2022-08-07T20:21:21.221Z,14.60
2022-08-07T20:24:00.959Z,14.60
2022-08-07T20:26:44.712Z,14.60
2022-08-07T20:29:47.031Z,14.60
2022-08-07T20:32:05.790Z,14.60
2022-08-07T20:34:50.857Z,14.50
2022-08-07T20:37:29.178Z,14.40
2022-08-07T20:40:02.219Z,14.30
2022-08-07T20:42:33.509Z,14.30
2022-08-07T20:45:04.348Z,14.20
2022-08-07T20:47:56.803Z,14.20
2022-08-07T20:50:27.027Z,14.10
2022-08-07T20:52:54.078Z,14.10
2022-08-07T20:55:23.983Z,14.00
2022-08-07T20:58:02.629Z,13.90
2022-08-07T21:00:44.509Z,13.80
2022-08-07T21:03:19.033Z,13.70
2022-08-07T21:06:01.290Z,13.70
2022-08-07T21:08:37.757Z,13.60
2022-08-07T21:11:14.403Z,13.50
2022-08-07T21:14:16.617Z,13.50
2022-08-07T21:16:55.925Z,13.40
2022-08-07T21:19:32.207Z,13.40
2022-08-07T21:22:19.514Z,13.20
2022-08-07T21:25:13.586Z,13.10
2022-08-07T21:28:18.934Z,13.10
2022-08-07T21:31:12.340Z,13.10
2022-08-07T21:33:42.313Z,13.10
2022-08-07T21:36:34.740Z,13.00
2022-08-07T21:39:47.795Z,12.90
2022-08-07T21:42:42.495Z,12.80
2022-08-07T21:46:07.725Z,12.70
2022-08-07T21:48:43.799Z,12.70
2022-08-07T21:51:25.930Z,12.60
2022-08-07T21:54:09.740Z,12.60
2022-08-07T21:56:50.635Z,12.60
2022-08-07T21:59:36.423Z,12.40
2022-08-07T22:02:34.775Z,12.40
2022-08-07T22:05:04.637Z,12.40
2022-08-07T22:07:58.457Z,12.30
2022-08-07T22:10:28.412Z,12.30
2022-08-07T22:13:05.794Z,12.30
2022-08-07T22:16:42.021Z,12.30
2022-08-07T22:19:03.250Z,12.30
2022-08-07T22:22:02.724Z,12.20
2022-08-07T22:24:49.393Z,12.20
2022-08-07T22:27:33.825Z,12.20
2022-08-07T22:30:17.592Z,12.20
2022-08-07T22:32:53.685Z,12.20
2022-08-07T22:35:25.098Z,12.20
2022-08-07T22:38:27.733Z,12.30
2022-08-07T22:41:00.169Z,12.30
2022-08-07T22:43:39.631Z,12.40
2022-08-07T22:46:42.984Z,12.40
2022-08-07T22:49:27.460Z,12.40
2022-08-07T22:52:48.998Z,12.50
2022-08-07T22:55:30.155Z,12.50
2022-08-07T22:58:27.704Z,12.50
2022-08-07T23:01:26.778Z,12.50
2022-08-07T23:04:57.829Z,12.50
2022-08-07T23:07:41.859Z,12.50
2022-08-07T23:10:38.067Z,12.50
2022-08-07T23:13:29.225Z,12.50
2022-08-07T23:16:44.908Z,12.60
2022-08-07T23:19:51.056Z,12.70
2022-08-07T23:22:40.332Z,12.70
2022-08-07T23:25:35.124Z,12.80
2022-08-07T23:28:20.260Z,12.80
2022-08-07T23:31:11.381Z,12.90
2022-08-07T23:34:36.091Z,13.00
2022-08-07T23:37:20.366Z,13.00
2022-08-07T23:40:07.873Z,13.10
2022-08-07T23:43:16.901Z,13.10
2022-08-07T23:46:02.461Z,13.20
2022-08-07T23:49:05.574Z,13.20
2022-08-07T23:53:05.707Z,13.30
2022-08-07T23:54:46.223Z,13.30
2022-08-07T23:57:57.233Z,13.30
